ADDS METAR Data INFO
IDs: Format: Raw Decoded Include TAF

Data at: 2113 UTC 20 Nov 2017

METAR for:KPEZ (Pleasanton Muni, TX, US)
Text:KPEZ 202055Z AUTO 20009KT 10SM CLR 22/05 A3004 RMK AO2 T02150050
Temperature: 21.5°C ( 71°F)
Dewpoint: 5.0°C ( 41°F) [RH = 34%]
Pressure (altimeter):30.04 inches Hg (1017.4 mb)
Winds:from the SSW (200 degrees) at 10 MPH (9 knots; 4.6 m/s)
Visibility:10 or more sm (16+ km)
Ceiling:at least 12,000 feet AGL
Clouds:sky clear below 12,000 feet AGL
QC Flag:automated observation with no human augmentation